createdAt,value
2019-03-23T00:01:44.863Z,4.81
2019-03-23T00:04:13.368Z,4.65
2019-03-23T00:06:41.848Z,4.70
2019-03-23T00:09:10.363Z,4.49
2019-03-23T00:11:38.844Z,4.49
2019-03-23T00:14:07.426Z,4.47
2019-03-23T00:16:35.906Z,4.40
2019-03-23T00:19:04.412Z,4.43
2019-03-23T00:21:32.891Z,4.55
2019-03-23T00:24:01.398Z,4.43
2019-03-23T00:26:29.877Z,4.41
2019-03-23T00:28:58.365Z,4.45
2019-03-23T00:31:26.840Z,4.41
2019-03-23T00:33:55.340Z,4.27
2019-03-23T00:36:23.822Z,4.25
2019-03-23T00:38:52.320Z,4.18
2019-03-23T00:41:20.805Z,4.31
2019-03-23T00:43:49.300Z,4.35
2019-03-23T00:46:17.774Z,4.26
2019-03-23T00:48:46.284Z,4.13
2019-03-23T00:51:14.761Z,4.06
2019-03-23T00:53:43.261Z,3.99
2019-03-23T00:56:11.734Z,4.07
2019-03-23T00:58:40.231Z,4.08
2019-03-23T01:01:08.703Z,4.14
2019-03-23T01:03:37.207Z,4.24
2019-03-23T01:06:05.753Z,4.13
2019-03-23T01:08:34.428Z,4.10
2019-03-23T01:11:02.909Z,4.06
2019-03-23T01:13:31.383Z,4.13
2019-03-23T01:15:59.874Z,4.19
2019-03-23T01:18:28.347Z,4.23
2019-03-23T01:20:56.846Z,4.22
2019-03-23T01:23:25.320Z,4.04
2019-03-23T01:25:53.926Z,4.07
2019-03-23T01:28:22.528Z,4.09
2019-03-23T01:30:51.022Z,4.01
2019-03-23T01:33:19.493Z,4.05
2019-03-23T01:35:47.985Z,4.03
2019-03-23T01:38:16.458Z,4.09
2019-03-23T01:40:44.966Z,4.14
2019-03-23T01:43:13.433Z,4.40
2019-03-23T01:45:41.938Z,5.13
2019-03-23T01:48:10.416Z,5.86
2019-03-23T01:50:38.910Z,6.02
2019-03-23T01:53:07.384Z,6.25
2019-03-23T01:55:35.955Z,6.95
2019-03-23T01:58:04.438Z,7.53
2019-03-23T02:00:32.930Z,8.11
2019-03-23T02:03:01.407Z,8.56
2019-03-23T02:05:29.910Z,8.82
2019-03-23T02:07:58.451Z,9.05
2019-03-23T02:10:26.948Z,9.05
2019-03-23T02:12:55.425Z,9.11
2019-03-23T02:15:23.918Z,9.28
2019-03-23T02:17:52.393Z,9.42
2019-03-23T02:20:20.886Z,9.38
2019-03-23T02:22:49.356Z,9.39
2019-03-23T02:25:17.862Z,9.55
2019-03-23T02:27:46.342Z,9.57
2019-03-23T02:30:14.987Z,9.47
2019-03-23T02:32:43.458Z,9.63
2019-03-23T02:35:12.232Z,9.53
2019-03-23T02:37:40.712Z,9.61
2019-03-23T02:40:12.819Z,9.56
2019-03-23T02:42:41.298Z,9.50
2019-03-23T02:45:13.771Z,9.43
2019-03-23T02:47:42.255Z,9.37
2019-03-23T02:50:11.387Z,9.26
2019-03-23T02:52:39.883Z,9.23
2019-03-23T02:55:10.206Z,9.25
2019-03-23T02:57:38.744Z,9.33
2019-03-23T03:00:12.780Z,9.21
2019-03-23T03:02:41.234Z,8.74
2019-03-23T03:05:10.068Z,8.54
2019-03-23T03:07:42.609Z,8.42
2019-03-23T03:10:11.109Z,8.37
2019-03-23T03:12:39.649Z,8.25
2019-03-23T03:15:09.395Z,8.09
2019-03-23T03:17:37.858Z,8.01
2019-03-23T03:20:08.404Z,7.60
2019-03-23T03:22:36.875Z,7.55
2019-03-23T03:25:07.411Z,7.49
2019-03-23T03:27:35.882Z,7.43
2019-03-23T03:30:06.327Z,7.74
2019-03-23T03:32:34.803Z,7.63
2019-03-23T03:35:03.375Z,7.70
2019-03-23T03:37:31.858Z,7.74
2019-03-23T03:40:00.550Z,7.89
2019-03-23T03:42:29.279Z,7.81
2019-03-23T03:44:57.754Z,7.85
2019-03-23T03:47:26.323Z,7.82
2019-03-23T03:49:54.802Z,8.03
2019-03-23T03:52:23.304Z,8.24
2019-03-23T03:54:51.888Z,8.34
2019-03-23T03:57:20.366Z,8.54
2019-03-23T03:59:48.840Z,8.49
2019-03-23T04:02:17.342Z,8.54
2019-03-23T04:04:45.816Z,8.63
2019-03-23T04:07:14.314Z,8.46
2019-03-23T04:09:42.781Z,8.23
2019-03-23T04:12:11.280Z,8.16
2019-03-23T04:14:39.752Z,7.92
2019-03-23T04:17:08.245Z,7.86
2019-03-23T04:19:36.724Z,7.52
2019-03-23T04:22:05.237Z,7.36
2019-03-23T04:24:33.688Z,7.03
2019-03-23T04:27:03.830Z,6.83
2019-03-23T04:29:32.679Z,6.60
2019-03-23T04:32:01.173Z,6.35
2019-03-23T04:34:29.642Z,6.13
2019-03-23T04:36:58.137Z,5.95
2019-03-23T04:39:26.607Z,5.65
2019-03-23T04:41:55.107Z,5.51
2019-03-23T04:44:23.580Z,5.56
2019-03-23T04:46:52.085Z,5.52
2019-03-23T04:49:20.561Z,5.70
2019-03-23T04:51:49.062Z,5.91
2019-03-23T04:54:17.530Z,6.33
2019-03-23T04:56:46.708Z,6.63
2019-03-23T04:59:15.186Z,7.04
2019-03-23T05:01:43.684Z,7.42
2019-03-23T05:04:12.165Z,7.45
2019-03-23T05:06:42.517Z,7.86
2019-03-23T05:09:10.858Z,8.25
2019-03-23T05:11:39.359Z,8.57
2019-03-23T05:14:07.833Z,8.91
2019-03-23T05:16:36.377Z,9.14
2019-03-23T05:19:04.848Z,9.35
2019-03-23T05:21:35.000Z,9.58
2019-03-23T05:24:03.473Z,9.73
2019-03-23T05:26:31.967Z,9.82
2019-03-23T05:29:00.443Z,9.89
2019-03-23T05:31:28.946Z,10.01
2019-03-23T05:33:57.422Z,10.30
2019-03-23T05:36:25.921Z,10.22
2019-03-23T05:38:54.398Z,10.28
2019-03-23T05:41:22.900Z,10.30
2019-03-23T05:43:51.382Z,10.23
2019-03-23T05:46:19.879Z,10.29
2019-03-23T05:48:48.354Z,10.44
2019-03-23T05:51:16.853Z,10.42
2019-03-23T05:53:45.328Z,10.38
2019-03-23T05:56:13.824Z,10.33
2019-03-23T05:58:42.307Z,10.16
2019-03-23T06:01:10.811Z,10.27
2019-03-23T06:03:39.283Z,10.32
2019-03-23T06:06:07.785Z,10.13
2019-03-23T06:08:36.261Z,10.20
2019-03-23T06:11:04.759Z,10.24
2019-03-23T06:13:33.242Z,10.24
2019-03-23T06:16:01.723Z,10.36
2019-03-23T06:18:30.228Z,10.38
2019-03-23T06:20:58.701Z,10.65
2019-03-23T06:23:27.213Z,10.59
2019-03-23T06:25:55.689Z,10.53
2019-03-23T06:28:24.179Z,10.53
2019-03-23T06:30:52.657Z,10.48
2019-03-23T06:33:21.167Z,10.48
2019-03-23T06:35:49.642Z,10.48
2019-03-23T06:38:18.147Z,10.59
2019-03-23T06:40:46.626Z,10.67
2019-03-23T06:43:15.125Z,10.69
2019-03-23T06:45:43.604Z,10.85
2019-03-23T06:48:12.100Z,10.91
2019-03-23T06:50:40.566Z,11.03
2019-03-23T06:53:09.071Z,11.23
2019-03-23T06:55:37.547Z,11.24
2019-03-23T06:58:06.118Z,11.31
2019-03-23T07:00:34.592Z,11.27
2019-03-23T07:03:03.093Z,11.49
2019-03-23T07:05:31.574Z,11.59
2019-03-23T07:08:00.077Z,11.70
2019-03-23T07:10:28.558Z,11.83
2019-03-23T07:12:57.061Z,12.06
2019-03-23T07:15:25.540Z,12.04
2019-03-23T07:17:54.050Z,12.03
2019-03-23T07:20:22.529Z,12.07
2019-03-23T07:22:51.037Z,12.19
2019-03-23T07:25:19.509Z,12.17
2019-03-23T07:27:48.012Z,12.08
2019-03-23T07:30:18.030Z,12.11
2019-03-23T07:32:46.532Z,12.27
2019-03-23T07:35:15.352Z,12.42
2019-03-23T07:37:43.933Z,12.70
2019-03-23T07:40:13.260Z,12.87
2019-03-23T07:42:41.895Z,12.94
2019-03-23T07:45:12.729Z,13.03
2019-03-23T07:47:41.214Z,13.08
2019-03-23T07:50:11.839Z,13.15
2019-03-23T07:52:40.348Z,13.36
2019-03-23T07:55:14.151Z,13.64
2019-03-23T07:57:42.990Z,13.64
2019-03-23T08:00:21.534Z,13.68
2019-03-23T08:02:50.101Z,13.68
2019-03-23T08:05:18.720Z,13.65
2019-03-23T08:07:47.344Z,13.62
2019-03-23T08:10:30.650Z,13.72
2019-03-23T08:12:59.443Z,13.69
2019-03-23T08:15:28.188Z,13.89
2019-03-23T08:17:57.122Z,14.01
2019-03-23T08:20:25.785Z,14.04
2019-03-23T08:22:55.251Z,14.10
2019-03-23T08:25:23.752Z,14.26
2019-03-23T08:27:52.234Z,14.31
2019-03-23T08:30:20.807Z,14.49
2019-03-23T08:32:49.287Z,14.42
2019-03-23T08:35:17.794Z,14.53
2019-03-23T08:37:46.272Z,14.74
2019-03-23T08:40:14.792Z,14.95
2019-03-23T08:42:43.280Z,15.16
2019-03-23T08:45:11.779Z,15.32
2019-03-23T08:47:40.256Z,15.23
2019-03-23T08:50:09.108Z,15.27
2019-03-23T08:52:37.587Z,15.40
2019-03-23T08:55:07.227Z,15.50
2019-03-23T08:57:35.707Z,15.50
2019-03-23T09:00:05.976Z,15.71
2019-03-23T09:02:34.447Z,15.65
2019-03-23T09:05:02.956Z,15.50
2019-03-23T09:07:31.432Z,15.59
2019-03-23T09:09:59.935Z,16.18
2019-03-23T09:12:28.415Z,16.87
2019-03-23T09:14:56.913Z,17.20
2019-03-23T09:17:25.394Z,17.51
2019-03-23T09:19:53.892Z,18.02
2019-03-23T09:22:22.365Z,18.30
2019-03-23T09:24:50.864Z,18.30
2019-03-23T09:27:19.344Z,18.28
2019-03-23T09:29:47.845Z,18.50
2019-03-23T09:32:16.327Z,18.77
2019-03-23T09:34:44.843Z,19.24
2019-03-23T09:37:13.320Z,18.79
2019-03-23T09:39:41.822Z,18.48
2019-03-23T09:42:10.296Z,18.32
2019-03-23T09:44:38.799Z,18.08
2019-03-23T09:47:07.274Z,18.19
2019-03-23T09:49:35.777Z,18.07
2019-03-23T09:52:04.323Z,18.01
2019-03-23T09:54:32.803Z,17.98
2019-03-23T09:57:01.308Z,18.02
2019-03-23T09:59:29.795Z,18.12
2019-03-23T10:01:58.299Z,18.07
2019-03-23T10:04:26.782Z,18.03
2019-03-23T10:06:55.285Z,18.19
2019-03-23T10:09:23.761Z,17.97
2019-03-23T10:11:52.270Z,18.28
2019-03-23T10:14:20.747Z,18.49
2019-03-23T10:16:49.262Z,18.52
2019-03-23T10:19:17.746Z,18.50
2019-03-23T10:21:46.257Z,18.31
2019-03-23T10:24:14.727Z,18.27
2019-03-23T10:26:43.233Z,18.39
2019-03-23T10:29:11.713Z,18.19
2019-03-23T10:31:40.216Z,18.44
2019-03-23T10:34:08.700Z,18.58
2019-03-23T10:36:37.209Z,18.83
2019-03-23T10:39:06.453Z,18.70
2019-03-23T10:41:34.958Z,18.73
2019-03-23T10:44:03.439Z,18.61
2019-03-23T10:46:31.939Z,18.69
2019-03-23T10:49:00.422Z,18.76
2019-03-23T10:51:28.918Z,18.93
2019-03-23T10:53:57.437Z,18.77
2019-03-23T10:56:25.941Z,18.87
2019-03-23T10:58:54.419Z,18.95
2019-03-23T11:01:22.918Z,19.10
2019-03-23T11:03:51.397Z,19.04
2019-03-23T11:06:19.899Z,19.07
2019-03-23T11:08:48.388Z,18.86
2019-03-23T11:11:16.889Z,18.98
2019-03-23T11:13:45.364Z,19.19
2019-03-23T11:16:13.830Z,19.39
2019-03-23T11:18:42.331Z,19.64
2019-03-23T11:21:10.802Z,20.19
2019-03-23T11:23:39.295Z,20.62
2019-03-23T11:26:07.759Z,21.40
2019-03-23T11:28:36.253Z,22.13
2019-03-23T11:31:04.794Z,21.64
2019-03-23T11:33:33.294Z,21.31
2019-03-23T11:36:01.762Z,21.21
2019-03-23T11:38:30.299Z,21.50
2019-03-23T11:40:58.723Z,21.42
2019-03-23T11:43:27.224Z,21.80
2019-03-23T11:45:55.705Z,22.61
2019-03-23T11:48:24.199Z,22.42
2019-03-23T11:50:52.677Z,22.44
2019-03-23T11:53:21.166Z,22.28
2019-03-23T11:55:49.637Z,22.23
2019-03-23T11:58:18.135Z,21.69
2019-03-23T12:00:46.615Z,22.12
2019-03-23T12:03:15.130Z,22.56
2019-03-23T12:05:43.809Z,22.66
2019-03-23T12:08:12.292Z,22.92
2019-03-23T12:10:40.775Z,22.79
2019-03-23T12:13:09.278Z,22.47
2019-03-23T12:15:37.749Z,22.83
2019-03-23T12:18:06.247Z,23.55
2019-03-23T12:20:34.725Z,24.10
2019-03-23T12:23:03.235Z,24.44
2019-03-23T12:25:31.703Z,25.04
2019-03-23T12:28:00.198Z,25.26
2019-03-23T12:30:28.668Z,25.23
2019-03-23T12:32:57.158Z,24.17
2019-03-23T12:35:25.632Z,25.34
2019-03-23T12:37:54.127Z,26.13
2019-03-23T12:40:22.603Z,26.53
2019-03-23T12:42:52.607Z,26.14
2019-03-23T12:45:21.081Z,26.32
2019-03-23T12:47:49.551Z,27.17
2019-03-23T12:50:18.046Z,26.96
2019-03-23T12:52:46.515Z,24.98
2019-03-23T12:55:15.008Z,24.95
2019-03-23T12:57:43.476Z,26.03
2019-03-23T13:00:15.118Z,27.13
2019-03-23T13:02:43.962Z,27.31
2019-03-23T13:05:12.635Z,27.64
2019-03-23T13:07:41.194Z,26.67
2019-03-23T13:10:14.467Z,26.34
2019-03-23T13:12:43.074Z,27.81
2019-03-23T13:15:16.436Z,27.85
2019-03-23T13:17:44.907Z,29.00
2019-03-23T13:20:13.864Z,26.84
2019-03-23T13:22:42.307Z,26.98
2019-03-23T13:25:11.042Z,26.21
2019-03-23T13:27:39.510Z,28.27
2019-03-23T13:30:13.757Z,27.79
2019-03-23T13:32:42.221Z,28.04
2019-03-23T13:35:10.779Z,27.90
2019-03-23T13:37:39.315Z,27.45
2019-03-23T13:40:11.104Z,28.75
2019-03-23T13:42:39.574Z,29.06
2019-03-23T13:45:08.707Z,28.82
2019-03-23T13:47:37.547Z,30.29
2019-03-23T13:50:06.883Z,31.35
2019-03-23T13:52:35.355Z,31.50
2019-03-23T13:55:04.790Z,32.00
2019-03-23T13:57:33.254Z,29.90
2019-03-23T14:00:01.758Z,30.37
2019-03-23T14:02:30.220Z,30.68
2019-03-23T14:04:58.715Z,28.29
2019-03-23T14:07:27.186Z,28.47
2019-03-23T14:09:55.686Z,29.13
2019-03-23T14:12:24.163Z,30.08
2019-03-23T14:14:52.651Z,30.42
2019-03-23T14:17:21.128Z,28.95
2019-03-23T14:19:49.614Z,30.20
2019-03-23T14:22:18.084Z,28.99
2019-03-23T14:24:46.575Z,29.57
2019-03-23T14:27:15.060Z,29.34
2019-03-23T14:29:45.430Z,28.85
2019-03-23T14:32:13.754Z,28.92
2019-03-23T14:34:42.220Z,28.01
2019-03-23T14:37:10.717Z,28.66
2019-03-23T14:39:39.191Z,28.01
2019-03-23T14:42:07.685Z,28.69
2019-03-23T14:44:36.153Z,28.46
2019-03-23T14:47:04.657Z,28.19
2019-03-23T14:49:33.133Z,28.03
2019-03-23T14:52:01.696Z,27.91
2019-03-23T14:54:30.174Z,26.85
2019-03-23T14:56:58.685Z,26.67
2019-03-23T14:59:27.239Z,25.62
2019-03-23T15:01:55.740Z,25.02
2019-03-23T15:04:24.213Z,25.56
2019-03-23T15:06:52.706Z,23.99
2019-03-23T15:09:21.173Z,22.99
2019-03-23T15:11:49.702Z,21.99
2019-03-23T15:14:18.182Z,21.09
2019-03-23T15:16:46.692Z,21.05
2019-03-23T15:19:15.705Z,21.03
2019-03-23T15:21:44.346Z,21.93
2019-03-23T15:24:12.824Z,22.80
2019-03-23T15:26:41.319Z,23.96
2019-03-23T15:29:09.802Z,25.64
2019-03-23T15:31:38.303Z,27.07
2019-03-23T15:34:06.854Z,26.46
2019-03-23T15:36:35.353Z,25.94
2019-03-23T15:39:05.700Z,26.32
2019-03-23T15:41:34.199Z,26.77
2019-03-23T15:44:02.736Z,26.69
2019-03-23T15:46:31.245Z,26.77
2019-03-23T15:48:59.718Z,27.36
2019-03-23T15:51:28.219Z,27.00
2019-03-23T15:53:56.686Z,26.24
2019-03-23T15:56:25.179Z,26.11
2019-03-23T15:58:53.651Z,24.96
2019-03-23T16:01:23.280Z,24.29
2019-03-23T16:03:51.811Z,24.49
2019-03-23T16:06:20.312Z,23.73
2019-03-23T16:08:48.792Z,24.98
2019-03-23T16:11:17.301Z,25.03
2019-03-23T16:13:45.810Z,24.54
2019-03-23T16:16:14.307Z,23.41
2019-03-23T16:18:42.801Z,22.99
2019-03-23T16:21:11.276Z,22.88
2019-03-23T16:23:39.777Z,22.92
2019-03-23T16:26:08.262Z,21.77
2019-03-23T16:28:36.758Z,21.37
2019-03-23T16:31:05.270Z,21.10
2019-03-23T16:33:33.775Z,20.29
2019-03-23T16:36:03.606Z,19.94
2019-03-23T16:38:32.228Z,19.88
2019-03-23T16:41:00.713Z,19.49
2019-03-23T16:43:29.211Z,19.31
2019-03-23T16:45:57.689Z,18.81
2019-03-23T16:48:26.193Z,18.44
2019-03-23T16:50:54.697Z,18.21
2019-03-23T16:53:23.336Z,17.87
2019-03-23T16:55:51.805Z,17.56
2019-03-23T16:58:20.311Z,17.31
2019-03-23T17:00:48.777Z,17.08
2019-03-23T17:03:17.269Z,16.71
2019-03-23T17:05:45.823Z,16.54
2019-03-23T17:08:14.319Z,16.32
2019-03-23T17:10:42.798Z,15.96
2019-03-23T17:13:11.319Z,15.69
2019-03-23T17:15:39.775Z,15.63
2019-03-23T17:18:08.349Z,15.58
2019-03-23T17:20:36.825Z,15.43
2019-03-23T17:23:05.324Z,15.30
2019-03-23T17:25:33.801Z,15.01
2019-03-23T17:28:02.302Z,14.77
2019-03-23T17:30:30.854Z,14.60
2019-03-23T17:32:59.362Z,14.57
2019-03-23T17:35:27.823Z,14.50
2019-03-23T17:37:56.322Z,14.16
2019-03-23T17:40:24.797Z,13.77
2019-03-23T17:42:53.309Z,13.45
2019-03-23T17:45:21.786Z,13.09
2019-03-23T17:47:50.298Z,12.90
2019-03-23T17:50:18.778Z,12.71
2019-03-23T17:52:47.701Z,12.59
2019-03-23T17:55:16.195Z,12.44
2019-03-23T17:57:44.672Z,12.86
2019-03-23T18:00:13.882Z,13.36
2019-03-23T18:02:42.352Z,13.95
2019-03-23T18:05:12.290Z,14.10
2019-03-23T18:07:40.875Z,14.36
2019-03-23T18:10:10.109Z,14.38
2019-03-23T18:12:38.725Z,14.34
2019-03-23T18:15:11.558Z,14.34
2019-03-23T18:17:40.147Z,14.25
2019-03-23T18:20:09.375Z,14.22
2019-03-23T18:22:37.856Z,14.10
2019-03-23T18:25:07.309Z,14.13
2019-03-23T18:27:35.791Z,13.99
2019-03-23T18:30:07.674Z,13.82
2019-03-23T18:32:36.222Z,13.68
2019-03-23T18:35:06.559Z,13.82
2019-03-23T18:37:35.038Z,13.72
2019-03-23T18:40:05.277Z,13.74
2019-03-23T18:42:35.268Z,13.62
2019-03-23T18:45:04.747Z,13.48
2019-03-23T18:47:33.223Z,13.39
2019-03-23T18:50:01.725Z,13.34
2019-03-23T18:52:30.194Z,13.24
2019-03-23T18:54:58.691Z,13.16
2019-03-23T18:57:27.174Z,13.20
2019-03-23T18:59:55.678Z,13.18
2019-03-23T19:02:24.294Z,13.05
2019-03-23T19:04:52.802Z,13.00
2019-03-23T19:07:21.298Z,13.18
2019-03-23T19:09:49.921Z,13.08
2019-03-23T19:12:18.405Z,12.99
2019-03-23T19:14:46.931Z,13.00
2019-03-23T19:17:15.420Z,13.02
2019-03-23T19:19:43.906Z,12.85
2019-03-23T19:22:12.388Z,12.84
2019-03-23T19:24:40.893Z,12.80
2019-03-23T19:27:09.937Z,12.73
2019-03-23T19:29:38.446Z,12.73
2019-03-23T19:32:06.991Z,12.67
2019-03-23T19:34:35.508Z,12.62
2019-03-23T19:37:03.980Z,12.52
2019-03-23T19:39:32.487Z,12.49
2019-03-23T19:42:00.952Z,12.32
2019-03-23T19:44:29.453Z,12.30
2019-03-23T19:46:57.934Z,12.06
2019-03-23T19:49:26.413Z,12.03
2019-03-23T19:51:54.919Z,12.01
2019-03-23T19:54:23.395Z,11.97
2019-03-23T19:56:51.902Z,11.86
2019-03-23T19:59:20.385Z,11.75
2019-03-23T20:01:49.101Z,11.72
2019-03-23T20:04:17.577Z,11.50
2019-03-23T20:06:46.734Z,11.48
2019-03-23T20:09:15.452Z,11.34
2019-03-23T20:11:44.262Z,11.26
2019-03-23T20:14:13.116Z,11.19
2019-03-23T20:16:46.001Z,11.11
2019-03-23T20:19:14.613Z,10.93
2019-03-23T20:21:43.150Z,10.92
2019-03-23T20:24:12.201Z,10.88
2019-03-23T20:26:41.909Z,10.88
2019-03-23T20:29:11.942Z,10.76
2019-03-23T20:31:41.289Z,10.76
2019-03-23T20:34:16.248Z,10.62
2019-03-23T20:36:48.618Z,10.55
2019-03-23T20:39:20.231Z,10.49
2019-03-23T20:41:50.429Z,10.37
2019-03-23T20:44:21.946Z,10.27
2019-03-23T20:46:50.760Z,10.25
2019-03-23T20:49:19.510Z,10.12
2019-03-23T20:51:48.220Z,10.00
2019-03-23T20:54:16.761Z,10.15
2019-03-23T20:56:45.322Z,10.01
2019-03-23T20:59:13.800Z,9.87
2019-03-23T21:01:42.301Z,9.56
2019-03-23T21:04:10.782Z,9.53
2019-03-23T21:06:39.330Z,9.41
2019-03-23T21:09:08.116Z,9.46
2019-03-23T21:11:36.727Z,9.45
2019-03-23T21:14:05.309Z,9.51
2019-03-23T21:16:33.818Z,9.42
2019-03-23T21:19:02.371Z,9.23
2019-03-23T21:21:30.898Z,8.94
2019-03-23T21:23:59.379Z,8.69
2019-03-23T21:26:27.878Z,8.48
2019-03-23T21:28:56.357Z,8.33
2019-03-23T21:31:24.866Z,8.06
2019-03-23T21:33:53.347Z,7.91
2019-03-23T21:36:21.858Z,7.81
2019-03-23T21:38:50.336Z,7.79
2019-03-23T21:41:18.842Z,8.16
2019-03-23T21:43:47.322Z,8.05
2019-03-23T21:46:15.826Z,8.10
2019-03-23T21:48:44.302Z,7.83
2019-03-23T21:51:12.789Z,7.85
2019-03-23T21:53:41.310Z,7.89
2019-03-23T21:56:09.787Z,7.75
2019-03-23T21:58:38.287Z,7.68
2019-03-23T22:01:06.760Z,7.62
2019-03-23T22:03:35.260Z,7.50
2019-03-23T22:06:03.976Z,7.53
2019-03-23T22:08:32.482Z,7.70
2019-03-23T22:11:00.956Z,7.50
2019-03-23T22:13:29.476Z,7.36
2019-03-23T22:15:57.945Z,7.19
2019-03-23T22:18:26.487Z,7.25
2019-03-23T22:20:54.959Z,7.18
2019-03-23T22:23:23.465Z,7.41
2019-03-23T22:25:51.946Z,7.50
2019-03-23T22:28:20.512Z,7.72
2019-03-23T22:30:48.989Z,7.98
2019-03-23T22:33:17.496Z,8.11
2019-03-23T22:35:45.974Z,8.27
2019-03-23T22:38:14.475Z,8.20
2019-03-23T22:40:42.950Z,8.31
2019-03-23T22:43:11.450Z,8.16
2019-03-23T22:45:39.928Z,8.23
2019-03-23T22:48:08.423Z,8.35
2019-03-23T22:50:36.904Z,8.45
2019-03-23T22:53:05.405Z,8.56
2019-03-23T22:55:33.891Z,8.61
2019-03-23T22:58:02.396Z,8.67
2019-03-23T23:00:41.968Z,8.75
2019-03-23T23:03:10.704Z,8.76
2019-03-23T23:05:39.269Z,8.83
2019-03-23T23:08:07.767Z,8.92
2019-03-23T23:10:36.617Z,9.09
2019-03-23T23:13:05.186Z,9.18
2019-03-23T23:15:33.668Z,9.03
2019-03-23T23:18:02.167Z,9.04
2019-03-23T23:20:30.645Z,9.11
2019-03-23T23:22:59.151Z,9.25
2019-03-23T23:25:27.624Z,9.33
2019-03-23T23:27:56.127Z,9.41
2019-03-23T23:30:24.603Z,9.56
2019-03-23T23:32:53.108Z,9.69
2019-03-23T23:35:21.589Z,9.56
2019-03-23T23:37:50.100Z,9.51
2019-03-23T23:40:18.575Z,9.44
2019-03-23T23:42:47.080Z,9.29
2019-03-23T23:45:16.106Z,9.40
2019-03-23T23:47:44.650Z,9.31
2019-03-23T23:50:13.212Z,9.19
2019-03-23T23:52:41.690Z,9.20
2019-03-23T23:55:10.334Z,9.13
2019-03-23T23:57:38.808Z,9.24
